Main page
METAR-TAF:

METAR-TAF

Airports :

Schaffen Air Base

Diest, Belgium

latitude: 51-00N, longitude: 005-04E, elevation: 30 m

Current weather observation

The report was made 11 minutes ago, at 16:43 UTC
Wind 3 kt from the East
Temperature 15°C
Humidity 82%
Pressure 1010 hPa
Visibility 10 km or more

METAR: EBDT 231643Z AUTO 08003KT 9999 BKN150/// 15/12 Q1010 BLU

Time: 18:54 (16:54 UTC)

Forecast

The report was made 5 hours and 13 minutes ago, at 11:41 UTC
Forecast valid from 23 at 13 UTC to 23 at 22 UTC
Wind 5 kt from the East/Northeast
Visibility 10 km or more
Scattered clouds at a height of 8000 ft
Broken clouds at a height of 10000 ft
Temporary
from 23 at 13 UTC to 23 at 17 UTC
Few clouds at a height of 1500 ft
Broken clouds at a height of 10000 ft

TAF: EBDT 231141Z 2313/2322 07005KT 9999 SCT080 BKN100 TEMPO 2313/2317 FEW015 BKN100

Weather observations and forecasts of more than 4000 airports (METAR and TAF reports).

The available stations are represented by yellow and red dots on the map.

Hover mouse over dot to see the name of the station.

Then click to see weather observations and forecasts.

To change the map : click on the green buttons with a black cross to zoom in, on the green button with a dash to zoom out, or on the green arrows for adjacent maps.


METAR-TAF: